Time;durP1;ratioP1;P1;durP2;ratioP2;P2;SDS_P1;SDS_P2;PMS_P1;PMS_P2;Temp;Humidity;BMP_temperature;BMP_pressure;BME280_temperature;BME280_humidity;BME280_pressure;Samples;Min_cycle;Max_cycle;Signal;HPM_P1;HPM_P2
2024/04/02 00:00:45;;;;;;;1.52;1.52;;;7.00;99.90;;;;;;5034335;28;20242;-71
2024/04/02 00:03:14;;;;;;;1.70;1.65;;;7.00;99.90;;;;;;5035714;28;20223;-71
2024/04/02 00:05:42;;;;;;;1.58;1.58;;;7.00;99.90;;;;;;5037937;28;20310;-71
2024/04/02 00:08:09;;;;;;;1.27;1.27;;;7.00;99.90;;;;;;5037566;28;20238;-71
2024/04/02 00:10:37;;;;;;;1.60;1.60;;;6.90;99.90;;;;;;5037248;28;20690;-71
2024/04/02 00:13:06;;;;;;;1.23;1.23;;;6.90;99.90;;;;;;5039674;28;20224;-71
2024/04/02 00:15:32;;;;;;;1.20;1.20;;;6.90;99.90;;;;;;5039430;28;20230;-71
2024/04/02 00:17:59;;;;;;;1.38;1.38;;;6.90;99.90;;;;;;5033655;28;20215;-71
2024/04/02 00:20:26;;;;;;;1.73;1.63;;;6.90;99.90;;;;;;5040664;28;20231;-71
2024/04/02 00:22:53;;;;;;;1.50;1.50;;;6.90;99.90;;;;;;5043910;28;20544;-71
2024/04/02 00:25:18;;;;;;;1.40;1.40;;;6.90;99.90;;;;;;5027551;28;20824;-71
2024/04/02 00:27:46;;;;;;;1.33;1.33;;;6.80;99.90;;;;;;5037719;28;20314;-71
2024/04/02 00:30:24;;;;;;;1.63;1.63;;;6.80;99.90;;;;;;5020611;28;20994;-71
2024/04/02 00:32:51;;;;;;;1.55;1.50;;;6.80;99.90;;;;;;5030256;28;20211;-73
2024/04/02 00:35:17;;;;;;;1.83;1.73;;;6.80;99.90;;;;;;5044713;28;20359;-73
2024/04/02 00:37:44;;;;;;;1.55;1.55;;;6.80;99.90;;;;;;5042878;28;20669;-71
2024/04/02 00:40:10;;;;;;;1.33;1.33;;;6.80;99.90;;;;;;5039515;28;20223;-71
2024/04/02 00:42:37;;;;;;;1.50;1.50;;;6.80;99.90;;;;;;5042494;28;20218;-71
2024/04/02 00:45:04;;;;;;;1.45;1.45;;;6.80;99.90;;;;;;5043463;28;20242;-72
2024/04/02 00:47:33;;;;;;;1.40;1.40;;;6.80;99.90;;;;;;5042548;28;20297;-71
2024/04/02 00:50:00;;;;;;;1.50;1.50;;;6.80;99.90;;;;;;5043980;28;20221;-71
2024/04/02 00:52:27;;;;;;;2.03;1.92;;;6.80;99.90;;;;;;5040594;28;20215;-71
2024/04/02 00:54:55;;;;;;;1.75;1.75;;;6.80;99.90;;;;;;5041617;28;20971;-71
2024/04/02 00:57:22;;;;;;;1.40;1.40;;;6.70;99.90;;;;;;5039911;28;20308;-71
2024/04/02 00:59:48;;;;;;;1.30;1.30;;;6.70;99.90;;;;;;5038790;28;20264;-71
2024/04/02 01:02:16;;;;;;;1.50;1.50;;;6.70;99.90;;;;;;5044014;28;20242;-71
2024/04/02 01:04:44;;;;;;;1.70;1.70;;;6.80;99.90;;;;;;5043652;28;20810;-71
2024/04/02 01:07:13;;;;;;;1.30;1.30;;;6.80;99.90;;;;;;5041725;28;20230;-72
2024/04/02 01:09:39;;;;;;;1.50;1.50;;;6.80;99.90;;;;;;5044356;28;20242;-72
2024/04/02 01:12:07;;;;;;;1.52;1.52;;;6.80;99.90;;;;;;5043658;28;20704;-72
2024/04/02 01:14:37;;;;;;;1.65;1.65;;;6.80;99.90;;;;;;5040089;28;20255;-72
2024/04/02 01:17:05;;;;;;;1.58;1.58;;;6.80;99.90;;;;;;5041437;28;20233;-72
2024/04/02 01:19:31;;;;;;;1.85;1.75;;;6.80;99.90;;;;;;5041595;28;20314;-72
2024/04/02 01:21:59;;;;;;;1.83;1.73;;;6.80;99.90;;;;;;5039235;28;20301;-71
2024/04/02 01:24:26;;;;;;;1.40;1.40;;;6.80;99.90;;;;;;5040276;28;20249;-71
2024/04/02 01:26:55;;;;;;;1.73;1.65;;;6.80;99.90;;;;;;5039619;28;20226;-71
2024/04/02 01:29:22;;;;;;;1.60;1.60;;;6.80;99.90;;;;;;5041482;28;20253;-71
2024/04/02 01:31:51;;;;;;;1.42;1.42;;;6.80;99.90;;;;;;5039934;28;20230;-71
2024/04/02 01:34:18;;;;;;;1.45;1.38;;;6.70;99.90;;;;;;5040845;28;20223;-71
2024/04/02 01:36:45;;;;;;;1.70;1.60;;;6.70;99.90;;;;;;5040348;28;20233;-71
2024/04/02 01:39:11;;;;;;;1.92;1.80;;;6.60;99.90;;;;;;5040143;28;20269;-72
2024/04/02 01:41:38;;;;;;;1.80;1.70;;;6.60;99.90;;;;;;5040741;28;20210;-71
2024/04/02 01:44:06;;;;;;;1.50;1.50;;;6.50;99.90;;;;;;5039856;28;20223;-71
2024/04/02 01:46:33;;;;;;;1.65;1.65;;;6.50;99.90;;;;;;5039104;28;20382;-71
2024/04/02 01:48:59;;;;;;;1.77;1.77;;;6.50;99.90;;;;;;5040915;28;20296;-72
2024/04/02 01:51:27;;;;;;;1.90;1.80;;;6.50;99.90;;;;;;5041517;28;20333;-71
2024/04/02 01:53:53;;;;;;;1.90;1.85;;;6.60;99.90;;;;;;5041038;28;20295;-72
2024/04/02 01:56:20;;;;;;;1.50;1.50;;;6.60;99.90;;;;;;5024126;28;20318;-71
2024/04/02 01:58:46;;;;;;;2.60;1.80;;;6.60;99.90;;;;;;5024398;28;21016;-71
2024/04/02 02:01:14;;;;;;;1.70;1.70;;;6.60;99.90;;;;;;5024765;28;20362;-71
2024/04/02 02:03:41;;;;;;;1.67;1.65;;;6.50;99.90;;;;;;5037351;28;20319;-72
2024/04/02 02:06:08;;;;;;;2.03;1.48;;;6.50;99.90;;;;;;5040446;28;20230;-72
2024/04/02 02:08:34;;;;;;;1.70;1.70;;;6.50;99.90;;;;;;5041672;28;20234;-71
2024/04/02 02:11:03;;;;;;;1.50;1.50;;;6.50;99.90;;;;;;5040877;28;20296;-72
2024/04/02 02:13:29;;;;;;;1.60;1.60;;;6.50;99.90;;;;;;5039860;28;20234;-72
2024/04/02 02:16:00;;;;;;;1.42;1.42;;;6.50;99.90;;;;;;5040121;28;20215;-71
2024/04/02 02:18:29;;;;;;;1.83;1.83;;;6.50;99.90;;;;;;5037391;28;20237;-71
2024/04/02 02:20:56;;;;;;;1.52;1.52;;;6.50;99.90;;;;;;5039181;28;20264;-71
2024/04/02 02:23:22;;;;;;;1.60;1.60;;;6.50;99.90;;;;;;5036940;28;20230;-71
2024/04/02 02:25:49;;;;;;;1.60;1.60;;;6.50;99.90;;;;;;5040580;28;20207;-72
2024/04/02 02:28:15;;;;;;;1.40;1.40;;;6.50;99.90;;;;;;5038774;28;20304;-71
2024/04/02 02:30:42;;;;;;;1.80;1.70;;;6.40;99.90;;;;;;5040326;28;20206;-72
2024/04/02 02:33:08;;;;;;;1.80;1.80;;;6.30;99.90;;;;;;5040221;28;20242;-71
2024/04/02 02:35:37;;;;;;;1.70;1.70;;;6.30;99.90;;;;;;5039709;28;20222;-72
2024/04/02 02:38:03;;;;;;;1.58;1.58;;;6.30;99.90;;;;;;5036691;28;20291;-71
2024/04/02 02:40:31;;;;;;;1.70;1.70;;;6.30;99.90;;;;;;5036735;28;20219;-71
2024/04/02 02:42:57;;;;;;;2.00;1.90;;;6.20;99.90;;;;;;5028773;28;20296;-72
2024/04/02 02:45:24;;;;;;;1.90;1.80;;;6.20;99.90;;;;;;5038816;28;20223;-71
2024/04/02 02:47:50;;;;;;;1.42;1.42;;;6.20;99.90;;;;;;5041733;28;20250;-71
2024/04/02 02:50:17;;;;;;;1.45;1.45;;;6.20;99.90;;;;;;5040922;28;20296;-71
2024/04/02 02:52:45;;;;;;;2.05;1.95;;;6.20;99.90;;;;;;5041480;28;20716;-71
2024/04/02 02:55:12;;;;;;;1.70;1.70;;;6.20;99.90;;;;;;5035411;28;20316;-71
2024/04/02 02:57:38;;;;;;;1.65;1.65;;;6.20;99.90;;;;;;5039959;28;20259;-71
2024/04/02 03:00:07;;;;;;;1.60;1.60;;;6.20;99.90;;;;;;5042088;28;20221;-71
2024/04/02 03:02:34;;;;;;;1.90;1.80;;;6.20;99.90;;;;;;5026410;28;20889;-71
2024/04/02 03:05:01;;;;;;;2.00;1.90;;;6.20;99.90;;;;;;5031408;28;20222;-71
2024/04/02 03:07:27;;;;;;;1.70;1.70;;;6.20;99.90;;;;;;5038473;28;20891;-72
2024/04/02 03:09:55;;;;;;;1.60;1.60;;;6.20;99.90;;;;;;5041793;28;20361;-72
2024/04/02 03:12:21;;;;;;;1.55;1.55;;;6.20;99.90;;;;;;5039052;28;20749;-72
2024/04/02 03:14:48;;;;;;;1.25;1.25;;;6.20;99.90;;;;;;5034979;28;20293;-72
2024/04/02 03:17:14;;;;;;;1.67;1.67;;;6.20;99.90;;;;;;5037379;28;20242;-71
2024/04/02 03:19:41;;;;;;;1.63;1.63;;;6.20;99.90;;;;;;5031773;28;20796;-71
2024/04/02 03:22:07;;;;;;;1.83;1.73;;;6.20;99.90;;;;;;5035131;28;20293;-71
2024/04/02 03:24:34;;;;;;;1.50;1.50;;;6.20;99.90;;;;;;5038359;28;20348;-71
2024/04/02 03:27:02;;;;;;;1.80;1.80;;;6.20;99.90;;;;;;5037924;28;20261;-71
2024/04/02 03:29:29;;;;;;;1.60;1.50;;;6.20;99.90;;;;;;5036697;28;20222;-71
2024/04/02 03:31:55;;;;;;;1.60;1.60;;;6.10;99.90;;;;;;5039627;28;20250;-71
2024/04/02 03:34:23;;;;;;;1.80;1.70;;;6.10;99.90;;;;;;5032408;28;20308;-71
2024/04/02 03:36:49;;;;;;;1.58;1.58;;;6.00;99.90;;;;;;5039070;28;21194;-71
2024/04/02 03:39:16;;;;;;;1.70;1.70;;;6.00;99.90;;;;;;5037011;28;20854;-71
2024/04/02 03:41:43;;;;;;;1.50;1.50;;;6.00;99.90;;;;;;5040393;28;20770;-71
2024/04/02 03:44:12;;;;;;;1.85;1.80;;;6.00;99.90;;;;;;5035038;28;20238;-71
2024/04/02 03:46:38;;;;;;;1.80;1.70;;;6.00;99.90;;;;;;5037223;28;20223;-72
2024/04/02 03:49:05;;;;;;;1.55;1.55;;;6.00;99.90;;;;;;5038698;28;20233;-71
2024/04/02 03:51:31;;;;;;;1.92;1.85;;;6.00;99.90;;;;;;5040686;28;20308;-72
2024/04/02 03:53:58;;;;;;;1.90;1.80;;;6.00;99.90;;;;;;5041998;28;20242;-72
2024/04/02 03:56:24;;;;;;;1.70;1.60;;;6.10;99.90;;;;;;5039413;28;20243;-72
2024/04/02 03:58:51;;;;;;;1.48;1.48;;;6.00;99.90;;;;;;5043889;28;20293;-71
2024/04/02 04:01:19;;;;;;;2.00;1.90;;;6.00;99.90;;;;;;4994605;28;1362555;-71
2024/04/02 04:03:45;;;;;;;1.80;1.70;;;6.00;99.90;;;;;;5044140;28;20225;-71
2024/04/02 04:06:13;;;;;;;1.90;1.80;;;6.00;99.90;;;;;;5040789;28;20222;-72
2024/04/02 04:08:39;;;;;;;1.73;1.73;;;5.90;99.90;;;;;;5042815;28;20218;-71
2024/04/02 04:11:06;;;;;;;1.80;1.80;;;5.90;99.90;;;;;;5042002;28;20700;-71
2024/04/02 04:13:32;;;;;;;1.70;1.70;;;5.90;99.90;;;;;;5043253;28;20230;-71
2024/04/02 04:16:01;;;;;;;2.30;2.20;;;5.80;99.90;;;;;;5042669;28;20307;-71
2024/04/02 04:18:28;;;;;;;1.75;1.65;;;5.80;99.90;;;;;;5042986;28;20211;-70
2024/04/02 04:20:57;;;;;;;1.50;1.50;;;5.70;99.90;;;;;;5023575;28;20239;-71
2024/04/02 04:23:23;;;;;;;1.52;1.52;;;5.70;99.90;;;;;;5038288;28;20243;-71
2024/04/02 04:25:55;;;;;;;1.58;1.58;;;5.70;99.90;;;;;;5041835;28;20277;-70
2024/04/02 04:28:21;;;;;;;1.98;1.88;;;5.70;99.90;;;;;;5040845;28;20770;-71
2024/04/02 04:30:56;;;;;;;1.90;1.80;;;5.70;99.90;;;;;;5044723;28;20828;-71
2024/04/02 04:33:23;;;;;;;1.70;1.70;;;5.70;99.90;;;;;;5040329;28;20339;-71
2024/04/02 04:35:52;;;;;;;2.10;2.00;;;5.60;99.90;;;;;;5042922;28;20249;-71
2024/04/02 04:38:19;;;;;;;1.50;1.50;;;5.60;99.90;;;;;;5042788;28;20242;-71
2024/04/02 04:40:46;;;;;;;1.60;1.60;;;5.60;99.90;;;;;;5043186;28;20297;-71
2024/04/02 04:43:14;;;;;;;2.15;2.05;;;5.60;99.90;;;;;;5039615;28;20312;-71
2024/04/02 04:45:41;;;;;;;1.70;1.70;;;5.60;99.90;;;;;;5041238;28;20203;-72
2024/04/02 04:48:08;;;;;;;1.88;1.85;;;5.70;99.90;;;;;;5041249;28;20254;-71
2024/04/02 04:50:36;;;;;;;1.70;1.70;;;5.70;99.90;;;;;;5039949;28;20704;-71
2024/04/02 04:53:04;;;;;;;2.17;1.38;;;5.70;99.90;;;;;;5044944;28;20347;-71
2024/04/02 04:55:31;;;;;;;1.50;1.50;;;5.80;99.90;;;;;;5042286;28;20241;-71
2024/04/02 04:57:57;;;;;;;1.80;1.70;;;5.80;99.90;;;;;;5043736;28;20226;-70
2024/04/02 05:00:24;;;;;;;1.50;1.50;;;5.80;99.90;;;;;;5042910;28;20258;-71
2024/04/02 05:02:50;;;;;;;1.58;1.58;;;5.90;99.90;;;;;;5025515;28;20294;-70
2024/04/02 05:05:18;;;;;;;1.50;1.50;;;5.90;99.90;;;;;;5041732;28;20211;-71
2024/04/02 05:07:57;;;;;;;1.60;1.60;;;5.90;99.90;;;;;;5040905;28;20264;-71
2024/04/02 05:10:26;;;;;;;1.45;1.45;;;5.90;99.90;;;;;;5044648;28;21275;-71
2024/04/02 05:12:52;;;;;;;1.70;1.70;;;5.90;99.90;;;;;;5039450;28;20279;-71
2024/04/02 05:15:19;;;;;;;1.60;1.58;;;5.90;99.90;;;;;;5042597;28;20954;-71
2024/04/02 05:17:45;;;;;;;1.52;1.52;;;5.90;99.90;;;;;;5041271;28;20233;-70
2024/04/02 05:20:12;;;;;;;2.00;1.90;;;5.80;99.90;;;;;;5041686;28;20215;-71
2024/04/02 05:22:38;;;;;;;2.00;1.90;;;5.90;99.90;;;;;;5042194;28;20241;-71
2024/04/02 05:25:05;;;;;;;1.98;1.88;;;6.00;99.90;;;;;;5038284;28;20215;-71
2024/04/02 05:27:33;;;;;;;2.10;2.00;;;6.00;99.90;;;;;;5040328;28;20608;-71
2024/04/02 05:30:00;;;;;;;2.00;1.90;;;6.10;99.90;;;;;;5038996;28;20220;-71
2024/04/02 05:32:26;;;;;;;1.80;1.70;;;6.20;99.90;;;;;;5044655;28;20303;-71
2024/04/02 05:34:53;;;;;;;1.90;1.80;;;6.20;99.90;;;;;;5040166;28;20704;-71
2024/04/02 05:37:19;;;;;;;2.22;2.13;;;6.50;99.90;;;;;;5042117;28;21370;-71
2024/04/02 05:39:48;;;;;;;2.50;2.40;;;6.80;99.90;;;;;;5043082;28;20218;-71
2024/04/02 05:42:15;;;;;;;2.25;2.05;;;7.20;99.90;;;;;;5041809;28;20222;-71
2024/04/02 05:44:43;;;;;;;1.75;1.67;;;7.50;99.90;;;;;;5034237;28;20226;-71
2024/04/02 05:47:09;;;;;;;2.90;1.85;;;7.70;99.90;;;;;;5025047;28;20304;-71
2024/04/02 05:49:36;;;;;;;2.20;2.10;;;7.80;99.90;;;;;;5027690;28;20251;-71
2024/04/02 05:52:03;;;;;;;1.70;1.60;;;7.90;99.90;;;;;;5040913;28;20242;-70
2024/04/02 05:54:30;;;;;;;1.90;1.80;;;8.20;99.90;;;;;;5040870;28;20269;-71
2024/04/02 05:56:56;;;;;;;1.90;1.80;;;8.40;99.90;;;;;;5040733;28;20250;-70
2024/04/02 05:59:23;;;;;;;2.20;2.10;;;8.50;99.90;;;;;;5039146;28;20242;-71
2024/04/02 06:01:51;;;;;;;1.85;1.75;;;8.60;99.90;;;;;;5042719;28;20291;-71
2024/04/02 06:04:18;;;;;;;1.75;1.65;;;8.60;99.90;;;;;;5038222;28;20884;-71
2024/04/02 06:06:46;;;;;;;1.77;1.67;;;8.60;99.90;;;;;;5023560;28;20718;-71
2024/04/02 06:09:13;;;;;;;1.90;1.80;;;8.50;99.90;;;;;;5020896;28;20223;-71
2024/04/02 06:11:39;;;;;;;2.65;1.70;;;8.50;99.90;;;;;;5025159;28;20219;-71
2024/04/02 06:14:06;;;;;;;1.83;1.77;;;8.60;99.90;;;;;;5028170;28;20803;-71
2024/04/02 06:16:32;;;;;;;1.92;1.83;;;8.70;99.90;;;;;;5034309;28;20867;-71
2024/04/02 06:19:01;;;;;;;2.08;1.98;;;8.90;99.90;;;;;;5042391;28;20246;-71
2024/04/02 06:21:27;;;;;;;1.73;1.60;;;8.80;99.90;;;;;;5038839;28;20635;-71
2024/04/02 06:23:54;;;;;;;2.20;2.10;;;9.00;99.90;;;;;;5040373;28;20218;-71
2024/04/02 06:26:20;;;;;;;1.88;1.77;;;9.30;99.90;;;;;;5034654;28;20251;-71
2024/04/02 06:28:47;;;;;;;1.83;1.73;;;9.50;99.90;;;;;;5026737;28;20226;-71
2024/04/02 06:31:13;;;;;;;1.77;1.67;;;9.70;99.90;;;;;;5026993;28;20435;-71
2024/04/02 06:33:40;;;;;;;1.88;1.77;;;9.90;99.90;;;;;;5023797;28;20715;-71
2024/04/02 06:36:08;;;;;;;1.77;1.67;;;10.00;99.90;;;;;;5038671;28;20345;-71
2024/04/02 06:38:35;;;;;;;2.20;2.10;;;10.10;99.90;;;;;;5039839;28;20222;-71
2024/04/02 06:41:01;;;;;;;1.70;1.60;;;10.50;99.90;;;;;;5037838;28;20214;-71
2024/04/02 06:43:31;;;;;;;2.42;1.95;;;10.70;99.90;;;;;;5039712;28;20195;-71
2024/04/02 06:45:59;;;;;;;1.73;1.63;;;11.00;99.90;;;;;;5036939;28;20230;-72
2024/04/02 06:48:26;;;;;;;1.90;1.80;;;11.20;99.90;;;;;;5039595;28;20207;-71
2024/04/02 06:50:58;;;;;;;1.60;1.50;;;11.40;99.90;;;;;;5040187;28;20785;-72
2024/04/02 06:53:28;;;;;;;2.10;2.00;;;11.50;99.90;;;;;;5053324;28;20207;-72
2024/04/02 06:55:54;;;;;;;2.00;1.90;;;11.50;99.90;;;;;;5041286;28;20246;-72
2024/04/02 06:58:23;;;;;;;2.28;2.17;;;11.70;99.90;;;;;;5041046;28;20241;-72
2024/04/02 07:00:50;;;;;;;1.55;1.45;;;11.80;99.90;;;;;;5037979;28;20665;-71
2024/04/02 07:03:18;;;;;;;1.85;1.75;;;11.90;99.90;;;;;;5039955;28;20225;-71
2024/04/02 07:05:45;;;;;;;1.92;1.83;;;12.30;99.90;;;;;;5037310;28;20247;-72
2024/04/02 07:08:13;;;;;;;1.73;1.63;;;12.50;99.90;;;;;;5033040;28;20949;-72
2024/04/02 07:10:42;;;;;;;1.98;1.88;;;12.50;99.90;;;;;;5024106;28;20227;-72
2024/04/02 07:13:10;;;;;;;2.38;1.73;;;12.50;99.90;;;;;;5034007;28;20646;-72
2024/04/02 07:15:36;;;;;;;1.98;1.88;;;12.40;99.90;;;;;;5034671;28;21090;-72
2024/04/02 07:18:06;;;;;;;1.75;1.65;;;12.30;99.90;;;;;;5050852;28;20223;-72
2024/04/02 07:20:32;;;;;;;1.88;1.77;;;12.50;99.90;;;;;;5037032;28;20307;-72
2024/04/02 07:22:59;;;;;;;1.60;1.50;;;12.50;99.90;;;;;;5036202;28;20314;-71
2024/04/02 07:25:25;;;;;;;2.22;1.70;;;12.50;99.90;;;;;;5036288;28;20377;-72
2024/04/02 07:27:56;;;;;;;1.90;1.80;;;12.60;99.90;;;;;;5035182;28;20218;-72
2024/04/02 07:30:22;;;;;;;2.92;1.80;;;12.60;99.90;;;;;;5032793;28;20289;-71
2024/04/02 07:32:51;;;;;;;2.00;1.90;;;12.70;99.90;;;;;;5035955;28;20214;-72
2024/04/02 07:35:18;;;;;;;2.70;1.83;;;12.90;99.90;;;;;;5034140;28;20707;-72
2024/04/02 07:37:45;;;;;;;2.20;2.00;;;13.00;99.90;;;;;;5035862;28;20242;-72
2024/04/02 07:40:11;;;;;;;2.35;1.73;;;13.10;99.90;;;;;;5033624;28;20302;-72
2024/04/02 07:42:38;;;;;;;1.92;1.83;;;13.10;99.90;;;;;;5037427;28;20226;-72
2024/04/02 07:45:06;;;;;;;2.15;1.83;;;12.50;99.90;;;;;;5035311;28;20246;-72
2024/04/02 07:47:33;;;;;;;1.60;1.50;;;11.90;99.90;;;;;;5036059;28;20245;-72
2024/04/02 07:49:59;;;;;;;1.70;1.60;;;11.70;99.90;;;;;;5033656;28;20339;-74
2024/04/02 07:52:26;;;;;;;1.42;1.33;;;11.60;99.90;;;;;;5032711;28;21026;-74
2024/04/02 07:54:52;;;;;;;1.77;1.67;;;11.70;99.90;;;;;;5049038;28;20319;-73
2024/04/02 07:57:19;;;;;;;1.75;1.65;;;12.20;99.90;;;;;;5034461;28;20738;-74
2024/04/02 07:59:45;;;;;;;1.70;1.60;;;12.90;99.90;;;;;;5032914;28;20238;-73
2024/04/02 08:02:13;;;;;;;1.95;1.85;;;13.30;99.90;;;;;;5034217;28;20289;-73
2024/04/02 08:04:39;;;;;;;1.80;1.70;;;13.40;99.90;;;;;;5032804;28;20319;-74
2024/04/02 08:07:06;;;;;;;2.05;1.70;;;13.80;99.90;;;;;;5033772;28;20242;-74
2024/04/02 08:09:32;;;;;;;1.60;1.50;;;13.80;99.90;;;;;;5035663;28;20321;-73
2024/04/02 08:11:59;;;;;;;1.70;1.60;;;13.90;99.90;;;;;;5033059;28;20455;-74
2024/04/02 08:14:31;;;;;;;3.03;1.65;;;14.00;99.90;;;;;;5034382;28;20242;-74
2024/04/02 08:16:59;;;;;;;3.22;1.70;;;14.00;99.90;;;;;;5035583;28;20330;-74
2024/04/02 08:19:27;;;;;;;1.73;1.60;;;14.10;99.90;;;;;;5034220;28;20229;-73
2024/04/02 08:21:54;;;;;;;2.50;1.50;;;14.10;99.90;;;;;;5031114;28;20225;-74
2024/04/02 08:24:21;;;;;;;1.50;1.40;;;14.10;99.90;;;;;;5033271;28;20227;-76
2024/04/02 08:26:48;;;;;;;1.50;1.23;;;14.20;99.90;;;;;;5035095;28;20226;-73
2024/04/02 08:29:14;;;;;;;1.85;1.40;;;14.30;99.90;;;;;;5018544;28;20210;-73
2024/04/02 08:31:41;;;;;;;1.35;1.25;;;14.30;99.90;;;;;;5034255;28;20230;-73
2024/04/02 08:34:08;;;;;;;1.30;1.30;;;14.50;99.90;;;;;;5033574;28;20354;-74
2024/04/02 08:36:37;;;;;;;1.25;1.20;;;14.50;99.90;;;;;;5031186;28;20227;-74
2024/04/02 08:39:04;;;;;;;1.40;1.30;;;14.60;99.90;;;;;;5035966;28;20222;-73
2024/04/02 08:41:31;;;;;;;1.20;1.20;;;14.70;99.90;;;;;;5041484;28;20225;-73
2024/04/02 08:43:57;;;;;;;1.48;1.27;;;14.70;99.90;;;;;;5040045;28;20226;-73
2024/04/02 08:46:26;;;;;;;1.30;1.20;;;14.70;99.90;;;;;;5039731;28;20223;-73
2024/04/02 08:48:52;;;;;;;1.17;1.17;;;14.60;99.90;;;;;;5037123;28;20238;-73
2024/04/02 08:51:20;;;;;;;1.05;1.05;;;14.80;99.90;;;;;;5027712;28;20219;-73
2024/04/02 08:53:47;;;;;;;3.70;1.52;;;15.20;99.90;;;;;;5017421;28;20309;-73
2024/04/02 08:56:16;;;;;;;1.27;1.17;;;15.30;99.90;;;;;;5021105;28;20246;-74
2024/04/02 08:58:42;;;;;;;1.40;1.30;;;15.20;99.90;;;;;;5040215;28;20603;-73
2024/04/02 09:01:12;;;;;;;1.20;1.20;;;15.20;99.90;;;;;;5033583;28;20293;-73
2024/04/02 09:03:38;;;;;;;2.20;1.48;;;15.20;99.90;;;;;;5037894;28;20326;-73
2024/04/02 09:06:05;;;;;;;2.45;1.10;;;15.20;99.90;;;;;;5036823;28;20293;-73
2024/04/02 09:08:42;;;;;;;1.15;1.08;;;15.10;99.90;;;;;;5038262;28;20292;-73
2024/04/02 09:11:10;;;;;;;3.03;1.13;;;14.90;99.90;;;;;;5037231;28;20222;-73
2024/04/02 09:13:37;;;;;;;1.27;1.27;;;14.80;99.90;;;;;;5038386;28;20222;-74
2024/04/02 09:16:04;;;;;;;2.15;1.20;;;14.70;99.90;;;;;;5036476;28;20785;-73
2024/04/02 09:18:32;;;;;;;1.30;1.20;;;14.50;99.90;;;;;;5037908;28;20296;-73
2024/04/02 09:21:00;;;;;;;1.10;1.10;;;14.40;99.90;;;;;;5037817;28;20214;-73
2024/04/02 09:23:26;;;;;;;1.30;1.20;;;14.40;99.90;;;;;;5035683;28;20220;-73
2024/04/02 09:25:54;;;;;;;1.10;1.10;;;14.50;99.90;;;;;;5018044;28;20231;-73
2024/04/02 09:28:22;;;;;;;2.05;1.40;;;15.00;99.90;;;;;;5021466;28;20231;-73
2024/04/02 09:30:49;;;;;;;2.17;1.60;;;15.40;99.90;;;;;;5035895;28;20219;-73
2024/04/02 09:33:16;;;;;;;1.20;1.13;;;15.90;99.90;;;;;;5036832;28;20312;-73
2024/04/02 09:36:05;;;;;;;1.20;1.20;;;16.20;99.90;;;;;;5036809;28;20231;-73
2024/04/02 09:38:33;;;;;;;1.15;1.05;;;16.40;99.90;;;;;;5017730;28;20272;-73
2024/04/02 09:41:02;;;;;;;1.33;1.23;;;16.30;99.90;;;;;;5036880;28;20777;-74
2024/04/02 09:43:31;;;;;;;1.20;1.10;;;16.20;99.90;;;;;;5037118;28;20205;-73
2024/04/02 09:46:00;;;;;;;1.30;1.20;;;16.30;99.90;;;;;;5037409;28;20711;-73
2024/04/02 09:48:29;;;;;;;1.27;1.20;;;16.10;99.90;;;;;;5037446;28;20349;-73
2024/04/02 09:50:58;;;;;;;1.30;1.20;;;16.00;99.90;;;;;;5033376;28;20222;-73
2024/04/02 09:53:25;;;;;;;1.05;1.05;;;16.40;99.90;;;;;;5034332;28;20751;-74
2024/04/02 09:55:53;;;;;;;1.15;1.15;;;16.80;99.90;;;;;;5022953;28;20223;-73
2024/04/02 09:58:19;;;;;;;1.10;1.10;;;16.90;99.90;;;;;;5035100;28;20261;-73
2024/04/02 10:00:52;;;;;;;1.60;1.50;;;16.90;99.90;;;;;;5035893;28;20226;-73
2024/04/02 10:03:20;;;;;;;1.15;1.15;;;16.90;99.90;;;;;;5037123;28;20214;-74
2024/04/02 10:05:47;;;;;;;1.10;1.00;;;16.80;99.90;;;;;;5030850;28;20223;-74
2024/04/02 10:08:15;;;;;;;1.00;1.00;;;17.00;99.90;;;;;;5035316;28;20319;-73
2024/04/02 10:10:42;;;;;;;1.05;1.00;;;16.90;99.90;;;;;;5035404;28;20302;-73
2024/04/02 10:13:08;;;;;;;1.38;1.00;;;17.10;99.90;;;;;;5033696;28;20292;-73
2024/04/02 10:15:35;;;;;;;1.08;1.00;;;17.00;99.90;;;;;;5032553;28;22073;-73
2024/04/02 10:18:03;;;;;;;1.10;1.00;;;17.10;99.90;;;;;;5015353;28;20794;-74
2024/04/02 10:20:31;;;;;;;0.93;0.93;;;17.20;99.90;;;;;;5028077;28;20214;-73
2024/04/02 10:22:58;;;;;;;0.70;0.70;;;16.60;99.90;;;;;;5032517;28;20219;-74
2024/04/02 10:25:26;;;;;;;1.20;1.20;;;16.10;99.90;;;;;;5038754;28;20217;-74
2024/04/02 10:27:57;;;;;;;0.95;0.90;;;16.00;99.90;;;;;;5030846;28;21979;-73
2024/04/02 10:30:25;;;;;;;0.90;0.90;;;16.00;99.90;;;;;;5034584;28;20215;-73
2024/04/02 10:32:52;;;;;;;1.00;1.00;;;16.30;99.90;;;;;;5030748;28;20795;-74
2024/04/02 10:35:22;;;;;;;1.20;1.10;;;16.50;99.90;;;;;;5033840;28;20218;-74
2024/04/02 10:37:51;;;;;;;0.95;0.95;;;16.70;99.90;;;;;;5031821;28;20255;-74
2024/04/02 10:40:19;;;;;;;0.90;0.90;;;16.70;99.90;;;;;;5031375;28;20219;-74
2024/04/02 10:42:46;;;;;;;0.77;0.77;;;17.00;99.90;;;;;;5020853;28;21112;-74
2024/04/02 10:45:14;;;;;;;0.80;0.80;;;17.30;99.90;;;;;;5017439;28;20707;-74
2024/04/02 10:47:45;;;;;;;0.70;0.70;;;17.40;99.90;;;;;;5018787;28;20381;-74
2024/04/02 10:50:13;;;;;;;0.80;0.80;;;17.20;99.90;;;;;;5018005;28;20398;-73
2024/04/02 10:52:41;;;;;;;0.80;0.80;;;17.20;99.90;;;;;;5035253;28;20238;-74
2024/04/02 10:55:09;;;;;;;0.70;0.70;;;17.30;99.90;;;;;;5033451;28;20229;-74
2024/04/02 10:57:36;;;;;;;0.80;0.80;;;17.30;99.90;;;;;;5032574;28;21003;-74
2024/04/02 11:00:05;;;;;;;0.88;0.88;;;17.40;99.90;;;;;;5031423;28;20218;-72
2024/04/02 11:02:32;;;;;;;0.88;0.88;;;17.50;99.90;;;;;;5035334;28;20223;-74
2024/04/02 11:04:59;;;;;;;0.82;0.82;;;17.40;99.90;;;;;;5034437;28;20357;-75
2024/04/02 11:07:26;;;;;;;1.85;0.90;;;17.40;99.90;;;;;;5040565;28;20628;-75
2024/04/02 11:09:56;;;;;;;0.82;0.82;;;17.60;99.90;;;;;;5034222;28;20215;-74
2024/04/02 11:12:22;;;;;;;1.10;1.02;;;17.80;99.90;;;;;;5034049;28;20247;-73
2024/04/02 11:14:50;;;;;;;1.00;1.00;;;17.90;99.90;;;;;;5029742;28;20590;-74
2024/04/02 11:17:16;;;;;;;1.17;1.10;;;17.80;99.90;;;;;;5035017;28;20769;-75
2024/04/02 11:19:43;;;;;;;2.75;1.00;;;17.80;99.90;;;;;;5035914;28;20260;-75
2024/04/02 11:25:08;;;;;;;1.33;0.93;;;17.90;99.90;;;;;;5032627;28;20380;-74
2024/04/02 11:27:38;;;;;;;0.70;0.70;;;17.90;99.90;;;;;;5034144;28;20307;-75
2024/04/02 11:30:04;;;;;;;1.10;0.70;;;18.00;99.90;;;;;;5032287;28;20230;-75
2024/04/02 11:32:32;;;;;;;1.33;1.10;;;18.10;99.90;;;;;;5031837;28;20219;-75
2024/04/02 11:34:59;;;;;;;0.90;0.90;;;18.00;99.90;;;;;;5029184;28;20301;-75
2024/04/02 11:37:27;;;;;;;0.90;0.90;;;17.70;99.90;;;;;;5032063;28;20249;-75
2024/04/02 11:39:54;;;;;;;0.90;0.90;;;17.70;99.90;;;;;;5033538;28;20329;-75
2024/04/02 11:42:23;;;;;;;1.45;1.00;;;17.90;99.90;;;;;;5033720;28;20231;-75
2024/04/02 11:44:50;;;;;;;0.85;0.85;;;18.00;99.90;;;;;;5034995;28;20229;-74
2024/04/02 11:47:17;;;;;;;0.80;0.80;;;18.20;99.90;;;;;;5034894;28;20230;-75
2024/04/02 11:49:43;;;;;;;0.88;0.80;;;18.30;99.90;;;;;;5036144;28;20234;-74
2024/04/02 11:52:11;;;;;;;1.50;1.00;;;18.30;99.90;;;;;;5035682;28;20288;-75
2024/04/02 11:54:37;;;;;;;0.90;0.88;;;18.30;99.90;;;;;;5034267;28;20226;-75
2024/04/02 12:02:36;;;;;;;0.88;0.88;;;18.10;99.90;;;;;;5034930;28;20224;-75
2024/04/02 12:05:05;;;;;;;0.80;0.80;;;18.10;99.90;;;;;;5032458;28;20310;-74
2024/04/02 12:07:32;;;;;;;0.80;0.80;;;18.20;99.90;;;;;;5030434;28;20317;-75
2024/04/02 12:10:02;;;;;;;0.85;0.85;;;18.40;99.90;;;;;;5034859;28;20369;-74
2024/04/02 12:12:28;;;;;;;0.90;0.90;;;18.50;99.90;;;;;;5034266;28;20235;-74
2024/04/02 12:14:57;;;;;;;0.95;0.50;;;18.50;99.90;;;;;;5038395;28;20709;-74
2024/04/02 12:17:23;;;;;;;0.80;0.80;;;18.60;99.90;;;;;;5038556;28;20321;-75
2024/04/02 12:19:51;;;;;;;0.80;0.80;;;18.50;99.90;;;;;;5037991;28;20272;-75
2024/04/02 12:22:18;;;;;;;0.80;0.80;;;18.50;99.90;;;;;;5036540;28;20318;-75
2024/04/02 12:24:45;;;;;;;0.75;0.75;;;18.70;99.90;;;;;;5038312;28;20927;-74
2024/04/02 12:27:11;;;;;;;1.63;0.70;;;18.90;99.90;;;;;;5055684;28;20309;-74
2024/04/02 12:29:38;;;;;;;1.58;0.82;;;19.20;99.90;;;;;;5037966;28;20962;-75
2024/04/02 12:32:07;;;;;;;3.03;0.88;;;19.20;99.90;;;;;;5040556;28;20243;-74
2024/04/02 12:34:35;;;;;;;1.20;0.85;;;18.90;99.90;;;;;;5038654;28;20218;-74
2024/04/02 12:37:02;;;;;;;0.60;0.60;;;18.70;99.90;;;;;;5038114;28;20242;-74
2024/04/02 12:39:30;;;;;;;0.75;0.70;;;18.40;99.90;;;;;;5040897;28;20226;-74
2024/04/02 12:41:56;;;;;;;0.80;0.80;;;18.40;99.90;;;;;;5039080;28;20644;-74
2024/04/02 12:44:23;;;;;;;0.80;0.80;;;18.70;99.90;;;;;;5039531;28;20221;-74
2024/04/02 12:46:49;;;;;;;0.90;0.90;;;18.90;99.90;;;;;;5035609;28;20262;-75
2024/04/02 12:49:17;;;;;;;0.70;0.70;;;19.00;99.90;;;;;;5040895;28;20214;-73
2024/04/02 12:51:44;;;;;;;0.70;0.70;;;18.80;99.90;;;;;;5038087;28;20316;-73
2024/04/02 12:54:11;;;;;;;0.77;0.77;;;18.90;99.90;;;;;;5036051;28;20234;-73
2024/04/02 12:56:37;;;;;;;0.70;0.70;;;18.90;99.90;;;;;;5035624;28;20223;-74
2024/04/02 12:59:04;;;;;;;0.75;0.75;;;19.00;99.90;;;;;;5040364;28;21508;-74
2024/04/02 13:01:30;;;;;;;0.80;0.80;;;19.10;99.90;;;;;;5037733;28;20288;-73